Main page
METAR-TAF:

METAR-TAF

Airports :

Augsburg, Germany

Augsburg Airport

latitude: 48-26N, longitude: 010-56E, elevation: 461 m

Current weather observation

The report was made 11 minutes ago, at 13:20 UTC
Wind 10 kt from the West/Northwest
Temperature 18°C
Humidity 68%
Pressure 1017 hPa
Visibility 10 km or more
Few clouds at a height of 3600 ft, Cumulonimbus.
Scattered clouds at a height of 6500 ft
thunderstorm, showers in vicinity

METAR: EDMA 231320Z 30010KT 9999 TS VCSH FEW036CB SCT065 18/12 Q1017 RERA

Time: 15:31 (13:31 UTC)

Forecast

The report was made 2 hours and 31 minutes ago, at 11:00 UTC
Forecast valid from 23 at 12 UTC to 23 at 21 UTC
Wind 10 kt from the West
Visibility 10 km or more
Scattered clouds at a height of 4000 ft
Probability 30% :
Temporary
from 23 at 12 UTC to 23 at 21 UTC
Wind 15 kt from the Northwest with gusts up to 30 kt
Broken clouds at a height of 5000 ft, Cumulonimbus.
thunderstorm, rain

TAF: EDMA 231100Z 2312/2321 27010KT 9999 SCT040 PROB30 TEMPO 2312/2321 32015G30KT TSRA BKN050CB

Weather observations and forecasts of more than 4000 airports (METAR and TAF reports).

The available stations are represented by yellow and red dots on the map.

Hover mouse over dot to see the name of the station.

Then click to see weather observations and forecasts.

To change the map : click on the green buttons with a black cross to zoom in, on the green button with a dash to zoom out, or on the green arrows for adjacent maps.


METAR-TAF: